sensor_id;sensor_type;location;lat;lon;timestamp;P1;durP1;ratioP1;P2;durP2;ratioP2
66966;SDS011;53900;51.468;-2.586;2022-07-19T00:02:04;4.18;;;2.40;;
66966;SDS011;53900;51.468;-2.586;2022-07-19T00:04:30;5.28;;;2.13;;
66966;SDS011;53900;51.468;-2.586;2022-07-19T00:06:56;6.22;;;2.03;;
66966;SDS011;53900;51.468;-2.586;2022-07-19T00:09:22;3.50;;;2.08;;
66966;SDS011;53900;51.468;-2.586;2022-07-19T00:11:47;2.33;;;1.75;;
66966;SDS011;53900;51.468;-2.586;2022-07-19T00:14:13;5.05;;;1.80;;
66966;SDS011;53900;51.468;-2.586;2022-07-19T00:16:38;15.23;;;2.30;;
66966;SDS011;53900;51.468;-2.586;2022-07-19T00:19:04;2.92;;;1.73;;
66966;SDS011;53900;51.468;-2.586;2022-07-19T00:21:30;2.50;;;1.70;;
66966;SDS011;53900;51.468;-2.586;2022-07-19T00:23:55;5.25;;;2.08;;
66966;SDS011;53900;51.468;-2.586;2022-07-19T00:26:20;3.88;;;1.73;;
66966;SDS011;53900;51.468;-2.586;2022-07-19T00:28:46;6.35;;;1.77;;
66966;SDS011;53900;51.468;-2.586;2022-07-19T00:31:11;9.18;;;1.98;;
66966;SDS011;53900;51.468;-2.586;2022-07-19T00:33:37;3.58;;;1.90;;
66966;SDS011;53900;51.468;-2.586;2022-07-19T00:36:02;2.03;;;1.65;;
66966;SDS011;53900;51.468;-2.586;2022-07-19T00:38:28;9.32;;;2.10;;
66966;SDS011;53900;51.468;-2.586;2022-07-19T00:40:53;7.28;;;2.75;;
66966;SDS011;53900;51.468;-2.586;2022-07-19T00:43:19;6.00;;;1.80;;
66966;SDS011;53900;51.468;-2.586;2022-07-19T00:45:44;7.85;;;1.85;;
66966;SDS011;53900;51.468;-2.586;2022-07-19T00:48:09;3.10;;;2.53;;
66966;SDS011;53900;51.468;-2.586;2022-07-19T00:50:35;4.00;;;2.30;;
66966;SDS011;53900;51.468;-2.586;2022-07-19T00:53:01;5.40;;;2.17;;
66966;SDS011;53900;51.468;-2.586;2022-07-19T00:55:30;6.05;;;2.40;;
66966;SDS011;53900;51.468;-2.586;2022-07-19T00:57:57;11.05;;;2.30;;
66966;SDS011;53900;51.468;-2.586;2022-07-19T01:00:23;5.18;;;2.00;;
66966;SDS011;53900;51.468;-2.586;2022-07-19T01:02:50;2.88;;;1.80;;
66966;SDS011;53900;51.468;-2.586;2022-07-19T01:05:16;6.22;;;1.90;;
66966;SDS011;53900;51.468;-2.586;2022-07-19T01:07:41;3.95;;;1.92;;
66966;SDS011;53900;51.468;-2.586;2022-07-19T01:10:08;6.32;;;1.88;;
66966;SDS011;53900;51.468;-2.586;2022-07-19T01:12:34;4.85;;;1.85;;
66966;SDS011;53900;51.468;-2.586;2022-07-19T01:15:00;2.58;;;1.83;;
66966;SDS011;53900;51.468;-2.586;2022-07-19T01:17:25;12.65;;;2.58;;
66966;SDS011;53900;51.468;-2.586;2022-07-19T01:19:52;4.13;;;2.13;;
66966;SDS011;53900;51.468;-2.586;2022-07-19T01:22:17;5.18;;;2.80;;
66966;SDS011;53900;51.468;-2.586;2022-07-19T01:24:43;4.97;;;2.13;;
66966;SDS011;53900;51.468;-2.586;2022-07-19T01:27:08;2.88;;;1.70;;
66966;SDS011;53900;51.468;-2.586;2022-07-19T01:29:34;5.68;;;1.70;;
66966;SDS011;53900;51.468;-2.586;2022-07-19T01:34:29;2.83;;;1.90;;
66966;SDS011;53900;51.468;-2.586;2022-07-19T01:36:54;4.13;;;1.80;;
66966;SDS011;53900;51.468;-2.586;2022-07-19T01:39:20;6.25;;;2.15;;
66966;SDS011;53900;51.468;-2.586;2022-07-19T01:41:46;5.38;;;1.83;;
66966;SDS011;53900;51.468;-2.586;2022-07-19T01:44:11;3.70;;;1.65;;
66966;SDS011;53900;51.468;-2.586;2022-07-19T01:46:37;6.47;;;1.95;;
66966;SDS011;53900;51.468;-2.586;2022-07-19T01:49:02;4.38;;;2.00;;
66966;SDS011;53900;51.468;-2.586;2022-07-19T01:51:28;7.03;;;1.95;;
66966;SDS011;53900;51.468;-2.586;2022-07-19T01:53:53;4.85;;;2.00;;
66966;SDS011;53900;51.468;-2.586;2022-07-19T01:56:19;6.43;;;2.17;;
66966;SDS011;53900;51.468;-2.586;2022-07-19T01:58:44;4.82;;;1.83;;
66966;SDS011;53900;51.468;-2.586;2022-07-19T02:01:10;4.30;;;1.92;;
66966;SDS011;53900;51.468;-2.586;2022-07-19T02:03:35;4.20;;;1.80;;
66966;SDS011;53900;51.468;-2.586;2022-07-19T02:06:00;7.47;;;2.10;;
66966;SDS011;53900;51.468;-2.586;2022-07-19T02:08:26;4.63;;;1.77;;
66966;SDS011;53900;51.468;-2.586;2022-07-19T02:10:52;8.32;;;2.10;;
66966;SDS011;53900;51.468;-2.586;2022-07-19T02:13:18;15.68;;;2.00;;
66966;SDS011;53900;51.468;-2.586;2022-07-19T02:15:43;7.55;;;1.92;;
66966;SDS011;53900;51.468;-2.586;2022-07-19T02:18:08;9.73;;;2.20;;
66966;SDS011;53900;51.468;-2.586;2022-07-19T02:20:34;3.00;;;1.73;;
66966;SDS011;53900;51.468;-2.586;2022-07-19T02:22:59;4.65;;;2.20;;
66966;SDS011;53900;51.468;-2.586;2022-07-19T02:25:25;5.40;;;2.20;;
66966;SDS011;53900;51.468;-2.586;2022-07-19T02:27:50;5.78;;;2.20;;
66966;SDS011;53900;51.468;-2.586;2022-07-19T02:30:16;6.57;;;1.95;;
66966;SDS011;53900;51.468;-2.586;2022-07-19T02:32:42;3.75;;;1.92;;
66966;SDS011;53900;51.468;-2.586;2022-07-19T02:35:08;3.67;;;1.92;;
66966;SDS011;53900;51.468;-2.586;2022-07-19T02:37:33;4.13;;;2.28;;
66966;SDS011;53900;51.468;-2.586;2022-07-19T02:39:59;9.52;;;2.40;;
66966;SDS011;53900;51.468;-2.586;2022-07-19T02:42:24;4.53;;;2.10;;
66966;SDS011;53900;51.468;-2.586;2022-07-19T02:44:50;6.38;;;2.30;;
66966;SDS011;53900;51.468;-2.586;2022-07-19T02:47:15;3.90;;;1.92;;
66966;SDS011;53900;51.468;-2.586;2022-07-19T02:49:41;5.95;;;2.10;;
66966;SDS011;53900;51.468;-2.586;2022-07-19T02:52:06;6.15;;;2.17;;
66966;SDS011;53900;51.468;-2.586;2022-07-19T02:54:31;5.78;;;2.05;;
66966;SDS011;53900;51.468;-2.586;2022-07-19T02:56:57;8.15;;;2.50;;
66966;SDS011;53900;51.468;-2.586;2022-07-19T02:59:22;5.47;;;2.10;;
66966;SDS011;53900;51.468;-2.586;2022-07-19T03:01:48;6.97;;;2.20;;
66966;SDS011;53900;51.468;-2.586;2022-07-19T03:04:13;4.80;;;2.22;;
66966;SDS011;53900;51.468;-2.586;2022-07-19T03:06:39;4.43;;;1.90;;
66966;SDS011;53900;51.468;-2.586;2022-07-19T03:09:04;4.82;;;2.38;;
66966;SDS011;53900;51.468;-2.586;2022-07-19T03:11:29;4.88;;;2.25;;
66966;SDS011;53900;51.468;-2.586;2022-07-19T03:13:55;4.53;;;2.38;;
66966;SDS011;53900;51.468;-2.586;2022-07-19T03:16:20;11.32;;;2.20;;
66966;SDS011;53900;51.468;-2.586;2022-07-19T03:18:46;9.38;;;2.13;;
66966;SDS011;53900;51.468;-2.586;2022-07-19T03:21:11;6.82;;;2.33;;
66966;SDS011;53900;51.468;-2.586;2022-07-19T03:23:37;7.63;;;2.15;;
66966;SDS011;53900;51.468;-2.586;2022-07-19T03:26:03;4.03;;;1.90;;
66966;SDS011;53900;51.468;-2.586;2022-07-19T03:28:29;18.05;;;2.63;;
66966;SDS011;53900;51.468;-2.586;2022-07-19T03:30:55;6.90;;;2.03;;
66966;SDS011;53900;51.468;-2.586;2022-07-19T03:33:20;4.97;;;2.28;;
66966;SDS011;53900;51.468;-2.586;2022-07-19T03:35:46;6.35;;;2.45;;
66966;SDS011;53900;51.468;-2.586;2022-07-19T03:38:11;2.80;;;2.00;;
66966;SDS011;53900;51.468;-2.586;2022-07-19T03:40:38;8.45;;;2.08;;
66966;SDS011;53900;51.468;-2.586;2022-07-19T03:43:04;5.07;;;2.08;;
66966;SDS011;53900;51.468;-2.586;2022-07-19T03:45:30;3.25;;;2.13;;
66966;SDS011;53900;51.468;-2.586;2022-07-19T03:47:55;7.40;;;2.03;;
66966;SDS011;53900;51.468;-2.586;2022-07-19T03:50:21;8.55;;;2.08;;
66966;SDS011;53900;51.468;-2.586;2022-07-19T03:52:46;3.35;;;2.10;;
66966;SDS011;53900;51.468;-2.586;2022-07-19T03:55:11;4.95;;;2.00;;
66966;SDS011;53900;51.468;-2.586;2022-07-19T03:57:37;12.50;;;2.17;;
66966;SDS011;53900;51.468;-2.586;2022-07-19T04:00:03;3.50;;;1.83;;
66966;SDS011;53900;51.468;-2.586;2022-07-19T04:02:29;4.75;;;2.22;;
66966;SDS011;53900;51.468;-2.586;2022-07-19T04:04:54;5.55;;;2.20;;
66966;SDS011;53900;51.468;-2.586;2022-07-19T04:07:20;4.55;;;2.33;;
66966;SDS011;53900;51.468;-2.586;2022-07-19T04:09:45;4.20;;;1.95;;
66966;SDS011;53900;51.468;-2.586;2022-07-19T04:12:11;5.38;;;2.22;;
66966;SDS011;53900;51.468;-2.586;2022-07-19T04:14:36;6.22;;;2.33;;
66966;SDS011;53900;51.468;-2.586;2022-07-19T04:17:02;5.50;;;2.58;;
66966;SDS011;53900;51.468;-2.586;2022-07-19T04:19:29;15.48;;;2.80;;
66966;SDS011;53900;51.468;-2.586;2022-07-19T04:21:55;5.53;;;2.20;;
66966;SDS011;53900;51.468;-2.586;2022-07-19T04:24:20;5.00;;;2.20;;
66966;SDS011;53900;51.468;-2.586;2022-07-19T04:26:46;6.18;;;2.00;;
66966;SDS011;53900;51.468;-2.586;2022-07-19T04:29:11;3.80;;;2.10;;
66966;SDS011;53900;51.468;-2.586;2022-07-19T04:31:36;8.27;;;2.50;;
66966;SDS011;53900;51.468;-2.586;2022-07-19T04:34:02;6.78;;;2.15;;
66966;SDS011;53900;51.468;-2.586;2022-07-19T04:36:27;6.10;;;1.95;;
66966;SDS011;53900;51.468;-2.586;2022-07-19T04:38:52;6.25;;;2.05;;
66966;SDS011;53900;51.468;-2.586;2022-07-19T04:41:18;6.05;;;2.10;;
66966;SDS011;53900;51.468;-2.586;2022-07-19T04:43:43;7.85;;;2.20;;
66966;SDS011;53900;51.468;-2.586;2022-07-19T04:46:08;4.65;;;2.00;;
66966;SDS011;53900;51.468;-2.586;2022-07-19T04:48:34;3.45;;;2.30;;
66966;SDS011;53900;51.468;-2.586;2022-07-19T04:50:59;4.72;;;2.08;;
66966;SDS011;53900;51.468;-2.586;2022-07-19T04:53:25;2.83;;;1.98;;
66966;SDS011;53900;51.468;-2.586;2022-07-19T04:55:50;7.45;;;2.00;;
66966;SDS011;53900;51.468;-2.586;2022-07-19T04:58:15;8.15;;;2.00;;
66966;SDS011;53900;51.468;-2.586;2022-07-19T05:00:41;3.85;;;2.15;;
66966;SDS011;53900;51.468;-2.586;2022-07-19T05:03:06;2.65;;;1.75;;
66966;SDS011;53900;51.468;-2.586;2022-07-19T05:05:32;7.82;;;2.13;;
66966;SDS011;53900;51.468;-2.586;2022-07-19T05:07:57;5.38;;;2.03;;
66966;SDS011;53900;51.468;-2.586;2022-07-19T05:10:23;7.18;;;2.53;;
66966;SDS011;53900;51.468;-2.586;2022-07-19T05:12:48;19.52;;;2.75;;
66966;SDS011;53900;51.468;-2.586;2022-07-19T05:15:14;8.57;;;2.20;;
66966;SDS011;53900;51.468;-2.586;2022-07-19T05:17:39;6.78;;;2.00;;
66966;SDS011;53900;51.468;-2.586;2022-07-19T05:20:05;5.85;;;2.13;;
66966;SDS011;53900;51.468;-2.586;2022-07-19T05:22:31;6.20;;;2.20;;
66966;SDS011;53900;51.468;-2.586;2022-07-19T05:24:57;9.98;;;2.78;;
66966;SDS011;53900;51.468;-2.586;2022-07-19T05:27:23;8.98;;;2.17;;
66966;SDS011;53900;51.468;-2.586;2022-07-19T05:29:48;5.97;;;2.17;;
66966;SDS011;53900;51.468;-2.586;2022-07-19T05:32:13;6.90;;;2.28;;
66966;SDS011;53900;51.468;-2.586;2022-07-19T05:34:39;11.15;;;2.10;;
66966;SDS011;53900;51.468;-2.586;2022-07-19T05:37:04;7.30;;;2.45;;
66966;SDS011;53900;51.468;-2.586;2022-07-19T05:39:30;10.23;;;2.40;;
66966;SDS011;53900;51.468;-2.586;2022-07-19T05:41:55;7.90;;;2.10;;
66966;SDS011;53900;51.468;-2.586;2022-07-19T05:44:21;6.43;;;2.05;;
66966;SDS011;53900;51.468;-2.586;2022-07-19T05:46:46;10.00;;;2.30;;
66966;SDS011;53900;51.468;-2.586;2022-07-19T05:49:12;6.35;;;2.10;;
66966;SDS011;53900;51.468;-2.586;2022-07-19T05:51:38;3.10;;;2.10;;
66966;SDS011;53900;51.468;-2.586;2022-07-19T05:54:04;9.10;;;2.38;;
66966;SDS011;53900;51.468;-2.586;2022-07-19T05:56:30;6.93;;;1.95;;
66966;SDS011;53900;51.468;-2.586;2022-07-19T05:58:56;4.30;;;2.13;;
66966;SDS011;53900;51.468;-2.586;2022-07-19T06:01:21;11.68;;;2.58;;
66966;SDS011;53900;51.468;-2.586;2022-07-19T06:03:57;9.02;;;2.72;;
66966;SDS011;53900;51.468;-2.586;2022-07-19T06:06:24;4.80;;;1.85;;
66966;SDS011;53900;51.468;-2.586;2022-07-19T06:08:51;11.70;;;2.22;;
66966;SDS011;53900;51.468;-2.586;2022-07-19T06:11:17;7.57;;;2.35;;
66966;SDS011;53900;51.468;-2.586;2022-07-19T06:13:43;4.57;;;2.00;;
66966;SDS011;53900;51.468;-2.586;2022-07-19T06:16:09;10.55;;;2.50;;
66966;SDS011;53900;51.468;-2.586;2022-07-19T06:18:36;7.10;;;2.50;;
66966;SDS011;53900;51.468;-2.586;2022-07-19T06:21:03;5.03;;;1.90;;
66966;SDS011;53900;51.468;-2.586;2022-07-19T06:23:30;12.38;;;2.60;;
66966;SDS011;53900;51.468;-2.586;2022-07-19T06:25:56;4.28;;;1.98;;
66966;SDS011;53900;51.468;-2.586;2022-07-19T06:28:21;7.05;;;2.30;;
66966;SDS011;53900;51.468;-2.586;2022-07-19T06:30:47;8.60;;;2.80;;
66966;SDS011;53900;51.468;-2.586;2022-07-19T06:33:12;13.55;;;2.40;;
66966;SDS011;53900;51.468;-2.586;2022-07-19T06:35:39;10.52;;;2.53;;
66966;SDS011;53900;51.468;-2.586;2022-07-19T06:38:05;6.78;;;2.42;;
66966;SDS011;53900;51.468;-2.586;2022-07-19T06:40:30;12.48;;;2.30;;
66966;SDS011;53900;51.468;-2.586;2022-07-19T06:42:56;5.78;;;2.17;;
66966;SDS011;53900;51.468;-2.586;2022-07-19T06:45:21;7.70;;;2.20;;
66966;SDS011;53900;51.468;-2.586;2022-07-19T06:47:46;10.27;;;2.63;;
66966;SDS011;53900;51.468;-2.586;2022-07-19T06:50:12;11.77;;;2.28;;
66966;SDS011;53900;51.468;-2.586;2022-07-19T06:52:37;8.05;;;2.70;;
66966;SDS011;53900;51.468;-2.586;2022-07-19T06:55:03;3.63;;;2.10;;
66966;SDS011;53900;51.468;-2.586;2022-07-19T06:57:29;10.48;;;2.10;;
66966;SDS011;53900;51.468;-2.586;2022-07-19T06:59:54;6.55;;;2.20;;
66966;SDS011;53900;51.468;-2.586;2022-07-19T07:02:19;8.45;;;2.38;;
66966;SDS011;53900;51.468;-2.586;2022-07-19T07:04:45;9.75;;;2.50;;
66966;SDS011;53900;51.468;-2.586;2022-07-19T07:07:10;11.50;;;2.78;;
66966;SDS011;53900;51.468;-2.586;2022-07-19T07:09:36;6.53;;;2.60;;
66966;SDS011;53900;51.468;-2.586;2022-07-19T07:12:01;9.25;;;2.45;;
66966;SDS011;53900;51.468;-2.586;2022-07-19T07:14:27;8.45;;;2.40;;
66966;SDS011;53900;51.468;-2.586;2022-07-19T07:16:52;8.15;;;2.63;;
66966;SDS011;53900;51.468;-2.586;2022-07-19T07:19:18;12.60;;;2.42;;
66966;SDS011;53900;51.468;-2.586;2022-07-19T07:21:43;15.48;;;2.38;;
66966;SDS011;53900;51.468;-2.586;2022-07-19T07:24:09;10.27;;;2.42;;
66966;SDS011;53900;51.468;-2.586;2022-07-19T07:26:34;12.90;;;2.53;;
66966;SDS011;53900;51.468;-2.586;2022-07-19T07:29:00;10.45;;;2.47;;
66966;SDS011;53900;51.468;-2.586;2022-07-19T07:31:25;7.53;;;2.25;;
66966;SDS011;53900;51.468;-2.586;2022-07-19T07:33:51;10.32;;;2.42;;
66966;SDS011;53900;51.468;-2.586;2022-07-19T07:36:16;14.23;;;2.60;;
66966;SDS011;53900;51.468;-2.586;2022-07-19T07:38:42;7.95;;;2.22;;
66966;SDS011;53900;51.468;-2.586;2022-07-19T07:41:07;11.70;;;2.17;;
66966;SDS011;53900;51.468;-2.586;2022-07-19T07:43:33;9.80;;;2.47;;
66966;SDS011;53900;51.468;-2.586;2022-07-19T07:45:58;7.80;;;2.20;;
66966;SDS011;53900;51.468;-2.586;2022-07-19T07:48:24;12.35;;;2.35;;
66966;SDS011;53900;51.468;-2.586;2022-07-19T07:50:49;10.15;;;2.42;;
66966;SDS011;53900;51.468;-2.586;2022-07-19T07:53:15;10.63;;;2.72;;
66966;SDS011;53900;51.468;-2.586;2022-07-19T07:55:40;7.57;;;2.42;;
66966;SDS011;53900;51.468;-2.586;2022-07-19T07:58:10;10.55;;;2.47;;
66966;SDS011;53900;51.468;-2.586;2022-07-19T08:00:36;11.20;;;2.63;;
66966;SDS011;53900;51.468;-2.586;2022-07-19T08:03:02;8.80;;;2.63;;
66966;SDS011;53900;51.468;-2.586;2022-07-19T08:05:28;11.07;;;3.00;;
66966;SDS011;53900;51.468;-2.586;2022-07-19T08:07:53;8.68;;;2.35;;
66966;SDS011;53900;51.468;-2.586;2022-07-19T08:10:20;8.52;;;2.80;;
66966;SDS011;53900;51.468;-2.586;2022-07-19T08:12:47;9.30;;;2.45;;
66966;SDS011;53900;51.468;-2.586;2022-07-19T08:15:12;14.70;;;2.58;;
66966;SDS011;53900;51.468;-2.586;2022-07-19T08:17:37;19.45;;;2.50;;
66966;SDS011;53900;51.468;-2.586;2022-07-19T08:20:03;9.15;;;2.75;;
66966;SDS011;53900;51.468;-2.586;2022-07-19T08:22:29;10.55;;;2.55;;
66966;SDS011;53900;51.468;-2.586;2022-07-19T08:24:54;19.13;;;2.80;;
66966;SDS011;53900;51.468;-2.586;2022-07-19T08:27:20;11.40;;;2.80;;
66966;SDS011;53900;51.468;-2.586;2022-07-19T08:29:45;11.23;;;2.58;;
66966;SDS011;53900;51.468;-2.586;2022-07-19T08:32:11;6.47;;;2.50;;
66966;SDS011;53900;51.468;-2.586;2022-07-19T08:34:36;18.58;;;2.85;;
66966;SDS011;53900;51.468;-2.586;2022-07-19T08:37:01;13.07;;;2.65;;
66966;SDS011;53900;51.468;-2.586;2022-07-19T08:39:28;7.95;;;2.28;;
66966;SDS011;53900;51.468;-2.586;2022-07-19T08:41:53;9.80;;;3.60;;
66966;SDS011;53900;51.468;-2.586;2022-07-19T08:44:19;4.70;;;2.35;;
66966;SDS011;53900;51.468;-2.586;2022-07-19T08:46:44;6.85;;;2.60;;
66966;SDS011;53900;51.468;-2.586;2022-07-19T08:49:11;6.63;;;2.40;;
66966;SDS011;53900;51.468;-2.586;2022-07-19T08:51:36;12.43;;;2.80;;
66966;SDS011;53900;51.468;-2.586;2022-07-19T08:54:02;11.50;;;2.95;;
66966;SDS011;53900;51.468;-2.586;2022-07-19T08:56:28;14.25;;;2.60;;
66966;SDS011;53900;51.468;-2.586;2022-07-19T08:59:12;15.15;;;2.90;;
66966;SDS011;53900;51.468;-2.586;2022-07-19T09:01:38;19.77;;;3.25;;
66966;SDS011;53900;51.468;-2.586;2022-07-19T09:04:09;13.20;;;3.28;;
66966;SDS011;53900;51.468;-2.586;2022-07-19T09:06:40;13.75;;;2.78;;
66966;SDS011;53900;51.468;-2.586;2022-07-19T09:09:10;16.13;;;3.63;;
66966;SDS011;53900;51.468;-2.586;2022-07-19T09:11:38;10.40;;;2.75;;
66966;SDS011;53900;51.468;-2.586;2022-07-19T09:14:13;13.30;;;2.70;;
66966;SDS011;53900;51.468;-2.586;2022-07-19T09:16:48;10.65;;;2.97;;
66966;SDS011;53900;51.468;-2.586;2022-07-19T09:19:15;10.63;;;3.08;;
66966;SDS011;53900;51.468;-2.586;2022-07-19T09:21:51;20.70;;;3.60;;
66966;SDS011;53900;51.468;-2.586;2022-07-19T09:24:44;19.63;;;3.60;;
66966;SDS011;53900;51.468;-2.586;2022-07-19T09:29:47;11.85;;;3.30;;
66966;SDS011;53900;51.468;-2.586;2022-07-19T09:32:14;16.92;;;3.33;;
66966;SDS011;53900;51.468;-2.586;2022-07-19T09:35:03;14.13;;;3.53;;
66966;SDS011;53900;51.468;-2.586;2022-07-19T09:37:28;9.68;;;3.22;;
66966;SDS011;53900;51.468;-2.586;2022-07-19T09:39:57;14.15;;;3.42;;
66966;SDS011;53900;51.468;-2.586;2022-07-19T09:42:43;11.93;;;3.58;;
66966;SDS011;53900;51.468;-2.586;2022-07-19T09:45:13;11.43;;;3.90;;
66966;SDS011;53900;51.468;-2.586;2022-07-19T09:47:43;9.68;;;3.20;;
66966;SDS011;53900;51.468;-2.586;2022-07-19T09:50:14;15.43;;;3.38;;
66966;SDS011;53900;51.468;-2.586;2022-07-19T09:52:42;10.98;;;3.30;;
66966;SDS011;53900;51.468;-2.586;2022-07-19T09:55:08;13.65;;;3.85;;
66966;SDS011;53900;51.468;-2.586;2022-07-19T09:57:35;11.82;;;3.25;;
66966;SDS011;53900;51.468;-2.586;2022-07-19T10:00:06;8.90;;;2.95;;
66966;SDS011;53900;51.468;-2.586;2022-07-19T10:02:34;16.35;;;3.00;;
66966;SDS011;53900;51.468;-2.586;2022-07-19T10:05:05;11.68;;;2.85;;
66966;SDS011;53900;51.468;-2.586;2022-07-19T10:07:31;10.15;;;2.80;;
66966;SDS011;53900;51.468;-2.586;2022-07-19T10:09:57;14.50;;;3.40;;
66966;SDS011;53900;51.468;-2.586;2022-07-19T10:12:28;15.18;;;3.22;;
66966;SDS011;53900;51.468;-2.586;2022-07-19T10:14:54;12.32;;;3.38;;
66966;SDS011;53900;51.468;-2.586;2022-07-19T10:19:52;8.45;;;3.42;;
66966;SDS011;53900;51.468;-2.586;2022-07-19T10:22:22;10.90;;;3.60;;
66966;SDS011;53900;51.468;-2.586;2022-07-19T10:25:22;20.65;;;4.13;;
66966;SDS011;53900;51.468;-2.586;2022-07-19T10:27:44;10.70;;;3.78;;
66966;SDS011;53900;51.468;-2.586;2022-07-19T10:32:41;14.68;;;4.03;;
66966;SDS011;53900;51.468;-2.586;2022-07-19T10:46:24;19.70;;;3.97;;
66966;SDS011;53900;51.468;-2.586;2022-07-19T10:48:58;42.45;;;4.35;;
66966;SDS011;53900;51.468;-2.586;2022-07-19T10:51:28;24.65;;;4.53;;
66966;SDS011;53900;51.468;-2.586;2022-07-19T10:54:08;16.67;;;4.07;;
66966;SDS011;53900;51.468;-2.586;2022-07-19T10:56:35;12.95;;;3.70;;
66966;SDS011;53900;51.468;-2.586;2022-07-19T10:59:06;13.13;;;3.40;;
66966;SDS011;53900;51.468;-2.586;2022-07-19T11:01:34;14.68;;;3.65;;
66966;SDS011;53900;51.468;-2.586;2022-07-19T11:04:23;13.48;;;3.72;;
66966;SDS011;53900;51.468;-2.586;2022-07-19T11:06:50;16.92;;;4.65;;
66966;SDS011;53900;51.468;-2.586;2022-07-19T11:09:17;16.83;;;3.65;;
66966;SDS011;53900;51.468;-2.586;2022-07-19T11:11:42;20.52;;;3.67;;
66966;SDS011;53900;51.468;-2.586;2022-07-19T11:14:07;10.20;;;3.80;;
66966;SDS011;53900;51.468;-2.586;2022-07-19T11:16:33;28.88;;;4.07;;
66966;SDS011;53900;51.468;-2.586;2022-07-19T11:19:06;11.50;;;3.67;;
66966;SDS011;53900;51.468;-2.586;2022-07-19T11:21:33;17.35;;;3.92;;
66966;SDS011;53900;51.468;-2.586;2022-07-19T11:24:00;13.13;;;3.65;;
66966;SDS011;53900;51.468;-2.586;2022-07-19T11:26:26;13.63;;;4.18;;
66966;SDS011;53900;51.468;-2.586;2022-07-19T11:29:00;14.35;;;3.95;;
66966;SDS011;53900;51.468;-2.586;2022-07-19T11:31:25;14.40;;;4.18;;
66966;SDS011;53900;51.468;-2.586;2022-07-19T11:33:51;14.40;;;3.92;;
66966;SDS011;53900;51.468;-2.586;2022-07-19T11:36:18;8.75;;;3.47;;
66966;SDS011;53900;51.468;-2.586;2022-07-19T11:38:48;20.80;;;4.20;;
66966;SDS011;53900;51.468;-2.586;2022-07-19T11:44:06;13.00;;;4.82;;
66966;SDS011;53900;51.468;-2.586;2022-07-19T11:46:33;16.65;;;4.93;;
66966;SDS011;53900;51.468;-2.586;2022-07-19T11:49:03;11.02;;;5.18;;
66966;SDS011;53900;51.468;-2.586;2022-07-19T11:51:31;21.42;;;5.72;;
66966;SDS011;53900;51.468;-2.586;2022-07-19T11:53:57;16.83;;;5.75;;
66966;SDS011;53900;51.468;-2.586;2022-07-19T11:56:25;19.48;;;6.20;;
66966;SDS011;53900;51.468;-2.586;2022-07-19T11:58:53;20.25;;;5.30;;
66966;SDS011;53900;51.468;-2.586;2022-07-19T12:01:36;15.48;;;7.22;;
66966;SDS011;53900;51.468;-2.586;2022-07-19T12:06:45;15.38;;;7.05;;
66966;SDS011;53900;51.468;-2.586;2022-07-19T12:09:12;12.40;;;6.60;;
66966;SDS011;53900;51.468;-2.586;2022-07-19T12:11:50;22.77;;;7.10;;
66966;SDS011;53900;51.468;-2.586;2022-07-19T12:19:45;22.85;;;6.32;;
66966;SDS011;53900;51.468;-2.586;2022-07-19T12:25:13;19.33;;;6.55;;
66966;SDS011;53900;51.468;-2.586;2022-07-19T12:27:39;12.23;;;5.35;;
66966;SDS011;53900;51.468;-2.586;2022-07-19T12:30:06;12.77;;;6.50;;
66966;SDS011;53900;51.468;-2.586;2022-07-19T12:35:11;18.73;;;5.35;;
66966;SDS011;53900;51.468;-2.586;2022-07-19T12:37:39;14.60;;;5.55;;
66966;SDS011;53900;51.468;-2.586;2022-07-19T12:40:07;19.08;;;5.22;;
66966;SDS011;53900;51.468;-2.586;2022-07-19T12:42:47;17.80;;;5.40;;
66966;SDS011;53900;51.468;-2.586;2022-07-19T12:45:19;16.77;;;5.32;;
66966;SDS011;53900;51.468;-2.586;2022-07-19T12:47:46;10.45;;;5.13;;
66966;SDS011;53900;51.468;-2.586;2022-07-19T12:52:44;10.60;;;4.88;;
66966;SDS011;53900;51.468;-2.586;2022-07-19T12:55:09;22.02;;;5.45;;
66966;SDS011;53900;51.468;-2.586;2022-07-19T12:57:35;10.57;;;4.85;;
66966;SDS011;53900;51.468;-2.586;2022-07-19T13:00:01;11.52;;;4.40;;
66966;SDS011;53900;51.468;-2.586;2022-07-19T13:02:27;16.48;;;5.30;;
66966;SDS011;53900;51.468;-2.586;2022-07-19T13:04:53;7.72;;;4.50;;
66966;SDS011;53900;51.468;-2.586;2022-07-19T13:07:18;20.80;;;5.63;;
66966;SDS011;53900;51.468;-2.586;2022-07-19T13:09:44;12.68;;;5.30;;
66966;SDS011;53900;51.468;-2.586;2022-07-19T13:12:09;13.18;;;5.10;;
66966;SDS011;53900;51.468;-2.586;2022-07-19T13:14:35;15.77;;;4.90;;
66966;SDS011;53900;51.468;-2.586;2022-07-19T13:17:01;10.18;;;4.85;;
66966;SDS011;53900;51.468;-2.586;2022-07-19T13:19:27;10.30;;;4.82;;
66966;SDS011;53900;51.468;-2.586;2022-07-19T13:21:53;15.70;;;4.78;;
66966;SDS011;53900;51.468;-2.586;2022-07-19T13:24:19;12.57;;;4.45;;
66966;SDS011;53900;51.468;-2.586;2022-07-19T13:26:45;19.02;;;5.13;;
66966;SDS011;53900;51.468;-2.586;2022-07-19T13:29:10;11.05;;;4.97;;
66966;SDS011;53900;51.468;-2.586;2022-07-19T13:31:36;11.02;;;5.30;;
66966;SDS011;53900;51.468;-2.586;2022-07-19T13:34:02;13.30;;;4.88;;
66966;SDS011;53900;51.468;-2.586;2022-07-19T13:36:28;10.88;;;5.10;;
66966;SDS011;53900;51.468;-2.586;2022-07-19T13:38:54;16.67;;;5.18;;
66966;SDS011;53900;51.468;-2.586;2022-07-19T13:41:19;20.23;;;4.90;;
66966;SDS011;53900;51.468;-2.586;2022-07-19T13:43:45;14.18;;;5.35;;
66966;SDS011;53900;51.468;-2.586;2022-07-19T13:46:11;11.75;;;5.03;;
66966;SDS011;53900;51.468;-2.586;2022-07-19T13:48:37;12.40;;;5.18;;
66966;SDS011;53900;51.468;-2.586;2022-07-19T13:51:03;9.45;;;4.70;;
66966;SDS011;53900;51.468;-2.586;2022-07-19T13:53:28;12.23;;;5.28;;
66966;SDS011;53900;51.468;-2.586;2022-07-19T13:55:54;10.75;;;5.07;;
66966;SDS011;53900;51.468;-2.586;2022-07-19T13:58:19;10.48;;;4.82;;
66966;SDS011;53900;51.468;-2.586;2022-07-19T14:00:44;10.18;;;4.93;;
66966;SDS011;53900;51.468;-2.586;2022-07-19T14:03:14;10.32;;;5.30;;
66966;SDS011;53900;51.468;-2.586;2022-07-19T14:05:42;11.55;;;5.15;;
66966;SDS011;53900;51.468;-2.586;2022-07-19T14:08:08;13.02;;;5.40;;
66966;SDS011;53900;51.468;-2.586;2022-07-19T14:10:34;13.05;;;5.18;;
66966;SDS011;53900;51.468;-2.586;2022-07-19T14:13:00;13.60;;;5.03;;
66966;SDS011;53900;51.468;-2.586;2022-07-19T14:15:25;9.43;;;4.95;;
66966;SDS011;53900;51.468;-2.586;2022-07-19T14:17:50;11.80;;;5.25;;
66966;SDS011;53900;51.468;-2.586;2022-07-19T14:20:16;12.05;;;5.53;;
66966;SDS011;53900;51.468;-2.586;2022-07-19T14:22:41;9.77;;;4.57;;
66966;SDS011;53900;51.468;-2.586;2022-07-19T14:25:07;17.08;;;5.25;;
66966;SDS011;53900;51.468;-2.586;2022-07-19T14:27:32;13.93;;;5.25;;
66966;SDS011;53900;51.468;-2.586;2022-07-19T14:29:58;14.25;;;5.05;;
66966;SDS011;53900;51.468;-2.586;2022-07-19T14:32:23;15.88;;;5.80;;
66966;SDS011;53900;51.468;-2.586;2022-07-19T14:34:49;11.88;;;5.00;;
66966;SDS011;53900;51.468;-2.586;2022-07-19T14:37:14;11.43;;;5.53;;
66966;SDS011;53900;51.468;-2.586;2022-07-19T14:39:39;19.30;;;5.97;;
66966;SDS011;53900;51.468;-2.586;2022-07-19T14:42:05;29.17;;;7.13;;
66966;SDS011;53900;51.468;-2.586;2022-07-19T14:44:31;23.40;;;6.13;;
66966;SDS011;53900;51.468;-2.586;2022-07-19T14:46:57;17.98;;;6.15;;
66966;SDS011;53900;51.468;-2.586;2022-07-19T14:49:22;13.38;;;5.80;;
66966;SDS011;53900;51.468;-2.586;2022-07-19T14:51:48;21.33;;;6.03;;
66966;SDS011;53900;51.468;-2.586;2022-07-19T14:54:13;15.48;;;5.28;;
66966;SDS011;53900;51.468;-2.586;2022-07-19T14:56:39;16.48;;;6.35;;
66966;SDS011;53900;51.468;-2.586;2022-07-19T14:59:05;21.92;;;6.50;;
66966;SDS011;53900;51.468;-2.586;2022-07-19T15:01:30;11.90;;;5.60;;
66966;SDS011;53900;51.468;-2.586;2022-07-19T15:03:56;13.02;;;6.25;;
66966;SDS011;53900;51.468;-2.586;2022-07-19T15:06:22;12.43;;;6.07;;